Time;durP1;ratioP1;P1;durP2;ratioP2;P2;SDS_P1;SDS_P2;PMS_P1;PMS_P2;Temp;Humidity;BMP_temperature;BMP_pressure;BME280_temperature;BME280_humidity;BME280_pressure;Samples;Min_cycle;Max_cycle;Signal;HPM_P1;HPM_P2
2023/03/27 00:01:00;;;;;;;0.30;0.30;;;5.90;99.90;;;;;;5055834;28;20430;-80
2023/03/27 00:03:52;;;;;;;0.40;0.30;;;6.00;99.90;;;;;;5054986;28;20438;-80
2023/03/27 00:06:20;;;;;;;0.30;0.30;;;6.00;99.90;;;;;;5052238;28;20526;-80
2023/03/27 00:08:51;;;;;;;0.30;0.30;;;6.00;99.90;;;;;;5055376;28;20469;-80
2023/03/27 00:11:23;;;;;;;0.30;0.20;;;6.00;99.90;;;;;;5055015;28;20556;-80
2023/03/27 00:13:53;;;;;;;0.30;0.30;;;6.00;99.90;;;;;;5055584;28;20453;-79
2023/03/27 00:16:20;;;;;;;0.30;0.30;;;6.00;99.90;;;;;;5055478;28;20478;-79
2023/03/27 00:18:47;;;;;;;0.30;0.30;;;5.90;99.90;;;;;;5055389;28;20477;-79
2023/03/27 00:21:14;;;;;;;0.30;0.20;;;6.00;99.90;;;;;;5055409;28;20446;-79
2023/03/27 00:23:41;;;;;;;0.30;0.30;;;6.00;99.90;;;;;;5055328;28;20810;-80
2023/03/27 00:26:08;;;;;;;0.30;0.20;;;6.00;99.90;;;;;;5055336;28;20553;-80
2023/03/27 00:28:35;;;;;;;0.30;0.20;;;5.90;99.90;;;;;;5055168;28;20471;-80
2023/03/27 00:31:03;;;;;;;0.67;0.67;;;6.00;99.90;;;;;;5055218;28;20443;-80
2023/03/27 00:33:35;;;;;;;0.43;0.30;;;5.80;99.90;;;;;;5055142;28;20457;-80
2023/03/27 00:36:05;;;;;;;0.30;0.20;;;5.90;99.90;;;;;;5054998;28;20482;-80
2023/03/27 00:38:33;;;;;;;0.30;0.20;;;5.80;99.90;;;;;;5054323;28;20473;-79
2023/03/27 00:41:03;;;;;;;0.30;0.20;;;5.80;99.90;;;;;;5055087;28;20449;-80
2023/03/27 00:43:33;;;;;;;0.30;0.30;;;5.90;99.90;;;;;;5055039;28;20454;-79
2023/03/27 00:46:06;;;;;;;0.40;0.30;;;5.90;99.90;;;;;;5054805;28;20452;-79
2023/03/27 00:48:36;;;;;;;0.30;0.30;;;5.80;99.90;;;;;;5054571;28;20512;-79
2023/03/27 00:51:05;;;;;;;0.30;0.27;;;5.80;99.90;;;;;;5054506;28;20517;-79
2023/03/27 00:53:33;;;;;;;0.40;0.30;;;5.80;99.90;;;;;;5054743;28;20443;-79
2023/03/27 00:56:05;;;;;;;0.40;0.30;;;5.70;99.90;;;;;;5053726;28;20910;-79
2023/03/27 00:58:41;;;;;;;0.50;0.30;;;5.70;99.90;;;;;;5054961;28;20465;-79
2023/03/27 01:01:11;;;;;;;0.30;0.20;;;5.60;99.90;;;;;;5055558;28;20489;-79
2023/03/27 01:03:40;;;;;;;0.30;0.30;;;5.60;99.90;;;;;;5054438;28;20423;-79
2023/03/27 01:06:09;;;;;;;0.40;0.40;;;5.60;99.90;;;;;;5054573;28;20442;-80
2023/03/27 01:08:37;;;;;;;0.40;0.30;;;5.60;99.90;;;;;;5054448;28;21057;-80
2023/03/27 01:11:13;;;;;;;0.30;0.30;;;5.60;99.90;;;;;;5054101;28;20565;-80
2023/03/27 01:13:54;;;;;;;0.40;0.30;;;5.50;99.90;;;;;;5054598;28;20435;-80
2023/03/27 01:16:28;;;;;;;0.30;0.30;;;5.50;99.90;;;;;;5054314;28;20466;-80
2023/03/27 01:19:08;;;;;;;0.30;0.30;;;5.50;99.90;;;;;;5054278;28;20505;-80
2023/03/27 01:21:56;;;;;;;0.30;0.30;;;5.60;99.90;;;;;;5054320;28;20485;-79
2023/03/27 01:24:54;;;;;;;0.30;0.30;;;5.50;99.90;;;;;;5054055;28;20836;-79
2023/03/27 01:27:29;;;;;;;0.30;0.30;;;5.50;99.90;;;;;;5054240;28;20477;-79
2023/03/27 01:30:07;;;;;;;0.40;0.40;;;5.50;99.90;;;;;;5054155;28;20480;-79
2023/03/27 01:33:06;;;;;;;0.30;0.30;;;5.50;99.90;;;;;;5053816;28;20529;-80
2023/03/27 01:35:52;;;;;;;0.53;0.53;;;5.40;99.90;;;;;;5054609;28;20435;-80
2023/03/27 01:38:47;;;;;;;0.60;0.60;;;5.40;99.90;;;;;;5053987;28;20492;-80
2023/03/27 01:41:21;;;;;;;0.50;0.50;;;5.40;99.90;;;;;;5053887;28;20442;-80
2023/03/27 01:43:53;;;;;;;0.80;0.80;;;5.40;99.90;;;;;;5053874;28;20434;-79
2023/03/27 01:46:24;;;;;;;0.60;0.40;;;5.40;99.90;;;;;;5054178;28;20853;-79
2023/03/27 01:48:56;;;;;;;1.33;0.70;;;5.40;99.90;;;;;;5053734;28;20459;-79
2023/03/27 01:51:28;;;;;;;0.47;0.47;;;5.40;99.90;;;;;;5053794;28;20427;-79
2023/03/27 01:54:00;;;;;;;0.40;0.40;;;5.40;99.90;;;;;;5053716;28;20433;-79
2023/03/27 01:56:32;;;;;;;0.50;0.50;;;5.40;99.90;;;;;;5054261;28;20813;-79
2023/03/27 01:59:03;;;;;;;0.40;0.30;;;5.30;99.90;;;;;;5053578;28;20473;-79
2023/03/27 02:01:35;;;;;;;0.30;0.30;;;5.30;99.90;;;;;;5053288;28;20430;-79
2023/03/27 02:04:04;;;;;;;0.70;0.60;;;5.20;99.90;;;;;;5053577;28;20492;-79
2023/03/27 02:06:34;;;;;;;0.67;0.50;;;5.10;99.90;;;;;;5053386;28;20451;-79
2023/03/27 02:09:05;;;;;;;0.30;0.30;;;4.90;99.90;;;;;;5053511;28;20470;-79
2023/03/27 02:11:37;;;;;;;0.60;0.33;;;4.90;99.90;;;;;;5053002;28;20489;-79
2023/03/27 02:14:07;;;;;;;1.07;0.40;;;4.80;99.90;;;;;;5053208;28;20416;-80
2023/03/27 02:16:41;;;;;;;0.50;0.50;;;4.70;99.90;;;;;;5053281;28;20470;-80
2023/03/27 02:19:12;;;;;;;1.17;0.63;;;4.70;99.90;;;;;;5053059;28;20993;-79
2023/03/27 02:21:39;;;;;;;0.53;0.50;;;4.60;99.90;;;;;;5053353;28;20436;-80
2023/03/27 02:24:07;;;;;;;0.60;0.60;;;4.60;99.90;;;;;;5053224;28;20500;-79
2023/03/27 02:26:35;;;;;;;1.50;1.00;;;4.50;99.90;;;;;;5053259;28;20458;-80
2023/03/27 02:29:16;;;;;;;1.17;0.93;;;4.50;99.90;;;;;;5053090;28;20525;-80
2023/03/27 02:31:56;;;;;;;1.30;1.17;;;4.50;99.90;;;;;;5052893;28;20932;-80
2023/03/27 02:34:42;;;;;;;2.30;1.10;;;4.40;99.90;;;;;;5053160;28;20423;-80
2023/03/27 02:37:18;;;;;;;0.67;0.60;;;4.40;99.90;;;;;;5053122;28;20466;-81
2023/03/27 02:39:54;;;;;;;4.00;1.00;;;4.40;99.90;;;;;;5052968;28;20488;-80
2023/03/27 02:42:30;;;;;;;0.70;0.70;;;4.40;99.90;;;;;;5053106;28;20431;-80
2023/03/27 02:45:03;;;;;;;1.43;0.97;;;4.30;99.90;;;;;;5053180;28;20803;-79
2023/03/27 02:47:36;;;;;;;0.50;0.50;;;4.30;99.90;;;;;;5053053;28;20427;-79
2023/03/27 02:50:09;;;;;;;2.83;1.50;;;4.30;99.90;;;;;;5052936;28;20477;-79
2023/03/27 02:52:41;;;;;;;1.10;0.33;;;4.30;99.90;;;;;;5053068;28;20489;-79
2023/03/27 02:55:15;;;;;;;0.77;0.60;;;4.30;99.90;;;;;;5053008;28;20430;-79
2023/03/27 02:57:45;;;;;;;0.70;0.70;;;4.30;99.90;;;;;;5052923;28;20467;-79
2023/03/27 03:00:24;;;;;;;0.50;0.50;;;4.20;99.90;;;;;;5052580;28;20966;-79
2023/03/27 03:02:54;;;;;;;0.30;0.30;;;4.20;99.90;;;;;;5052922;28;20440;-79
2023/03/27 03:05:23;;;;;;;0.90;0.90;;;4.20;99.90;;;;;;5052574;28;20442;-79
2023/03/27 03:07:53;;;;;;;0.50;0.40;;;4.20;99.90;;;;;;5052879;28;20810;-79
2023/03/27 03:10:21;;;;;;;0.87;0.50;;;4.20;99.90;;;;;;5052463;28;20569;-79
2023/03/27 03:12:49;;;;;;;0.40;0.40;;;4.10;99.90;;;;;;5052830;28;20469;-79
2023/03/27 03:15:17;;;;;;;0.63;0.63;;;4.00;99.90;;;;;;5052790;28;20454;-79
2023/03/27 03:17:44;;;;;;;0.40;0.40;;;4.00;99.90;;;;;;5052463;28;20460;-79
2023/03/27 03:20:12;;;;;;;0.30;0.30;;;3.90;99.90;;;;;;5055174;28;20433;-79
2023/03/27 03:22:40;;;;;;;0.30;0.30;;;3.80;99.90;;;;;;5056584;28;20488;-79
2023/03/27 03:25:09;;;;;;;0.77;0.60;;;3.70;99.90;;;;;;5056555;28;20456;-79
2023/03/27 03:27:36;;;;;;;0.30;0.30;;;3.60;99.90;;;;;;5057159;28;20447;-79
2023/03/27 03:30:06;;;;;;;0.30;0.30;;;3.60;99.90;;;;;;5056391;28;20485;-79
2023/03/27 03:32:32;;;;;;;5.13;0.70;;;3.50;99.90;;;;;;5056423;28;20430;-79
2023/03/27 03:35:00;;;;;;;0.30;0.30;;;3.40;99.90;;;;;;5056335;28;20450;-79
2023/03/27 03:37:27;;;;;;;0.30;0.30;;;3.40;99.90;;;;;;5055875;28;20513;-79
2023/03/27 03:39:54;;;;;;;0.40;0.37;;;3.30;99.90;;;;;;5056166;28;20458;-79
2023/03/27 03:42:21;;;;;;;0.30;0.30;;;3.30;99.90;;;;;;5056000;28;20438;-79
2023/03/27 03:44:47;;;;;;;0.30;0.30;;;3.20;99.90;;;;;;5055958;28;20409;-79
2023/03/27 03:47:15;;;;;;;0.30;0.30;;;3.20;99.90;;;;;;5055844;28;20930;-79
2023/03/27 03:49:42;;;;;;;0.50;0.50;;;3.10;99.90;;;;;;5056241;28;20869;-79
2023/03/27 03:52:09;;;;;;;0.30;0.30;;;3.10;99.90;;;;;;5056040;28;20448;-79
2023/03/27 03:54:37;;;;;;;0.50;0.43;;;3.00;99.90;;;;;;5055642;28;20830;-79
2023/03/27 03:57:04;;;;;;;0.37;0.37;;;3.00;99.90;;;;;;5055816;28;20488;-79
2023/03/27 03:59:31;;;;;;;0.30;0.30;;;3.00;99.90;;;;;;5055846;28;20836;-81
2023/03/27 04:01:57;;;;;;;0.30;0.30;;;2.90;99.90;;;;;;5055831;28;20454;-81
2023/03/27 04:04:25;;;;;;;0.30;0.30;;;2.80;99.90;;;;;;5055410;28;20844;-81
2023/03/27 04:06:56;;;;;;;0.40;0.40;;;2.80;99.90;;;;;;5056545;28;20438;-81
2023/03/27 04:09:24;;;;;;;0.40;0.30;;;2.80;99.90;;;;;;5055356;28;20566;-81
2023/03/27 04:11:50;;;;;;;4.80;0.50;;;2.80;99.90;;;;;;5056125;28;20465;-81
2023/03/27 04:14:17;;;;;;;0.37;0.33;;;2.80;99.90;;;;;;5055579;28;20840;-81
2023/03/27 04:16:44;;;;;;;1.03;0.40;;;2.80;99.90;;;;;;5055426;28;20439;-81
2023/03/27 04:19:10;;;;;;;0.30;0.30;;;2.90;99.90;;;;;;5055503;28;20470;-81
2023/03/27 04:21:41;;;;;;;0.70;0.70;;;2.80;99.90;;;;;;5055456;28;20417;-81
2023/03/27 04:24:07;;;;;;;0.30;0.27;;;2.90;99.90;;;;;;5055383;28;20426;-82
2023/03/27 04:26:34;;;;;;;0.30;0.30;;;2.80;99.90;;;;;;5055330;28;20450;-82
2023/03/27 04:29:01;;;;;;;0.30;0.30;;;2.80;99.90;;;;;;5055270;28;20566;-82
2023/03/27 04:31:29;;;;;;;0.30;0.30;;;2.90;99.90;;;;;;5054807;28;20807;-82
2023/03/27 04:33:55;;;;;;;0.40;0.40;;;2.90;99.90;;;;;;5055266;28;20482;-82
2023/03/27 04:36:24;;;;;;;0.30;0.20;;;3.00;99.90;;;;;;5055233;28;20438;-82
2023/03/27 04:38:53;;;;;;;0.87;0.40;;;3.00;99.90;;;;;;5054728;28;20457;-82
2023/03/27 04:41:20;;;;;;;0.40;0.40;;;3.00;99.90;;;;;;5055218;28;20481;-82
2023/03/27 04:43:46;;;;;;;0.37;0.37;;;2.90;99.90;;;;;;5055081;28;20460;-82
2023/03/27 04:46:13;;;;;;;0.30;0.30;;;2.90;99.90;;;;;;5054542;28;20908;-82
2023/03/27 04:48:40;;;;;;;0.70;0.50;;;2.90;99.90;;;;;;5054636;28;20467;-82
2023/03/27 04:51:08;;;;;;;0.30;0.27;;;2.90;99.90;;;;;;5054969;28;20466;-82
2023/03/27 04:53:36;;;;;;;0.50;0.50;;;2.90;99.90;;;;;;5054588;28;20901;-82
2023/03/27 04:56:05;;;;;;;0.77;0.30;;;2.80;99.90;;;;;;5046710;28;20446;-81
2023/03/27 04:58:32;;;;;;;0.63;0.40;;;2.80;99.90;;;;;;5055190;28;20536;-82
2023/03/27 05:01:01;;;;;;;0.40;0.30;;;2.80;99.90;;;;;;5054955;28;20465;-82
2023/03/27 05:03:27;;;;;;;0.40;0.40;;;2.80;99.90;;;;;;5054682;28;20454;-82
2023/03/27 05:05:54;;;;;;;0.47;0.40;;;2.70;99.90;;;;;;5054350;28;20459;-82
2023/03/27 05:08:21;;;;;;;0.30;0.30;;;2.70;99.90;;;;;;5054677;28;20465;-82
2023/03/27 05:10:48;;;;;;;0.40;0.40;;;2.60;99.90;;;;;;5054416;28;20489;-82
2023/03/27 05:13:16;;;;;;;0.80;0.43;;;2.60;99.90;;;;;;5054410;28;20457;-82
2023/03/27 05:15:42;;;;;;;0.57;0.50;;;2.50;99.90;;;;;;5054367;28;20451;-82
2023/03/27 05:18:09;;;;;;;0.40;0.40;;;2.40;99.90;;;;;;5054028;28;20879;-85
2023/03/27 05:20:36;;;;;;;1.20;0.47;;;2.30;99.90;;;;;;5054048;28;20783;-85
2023/03/27 05:23:03;;;;;;;0.43;0.40;;;2.30;99.90;;;;;;5054327;28;20457;-85
2023/03/27 05:25:31;;;;;;;0.43;0.43;;;2.30;99.90;;;;;;5054256;28;20522;-85
2023/03/27 05:27:58;;;;;;;0.57;0.57;;;2.30;99.90;;;;;;5054130;28;20454;-85
2023/03/27 05:30:27;;;;;;;0.40;0.40;;;2.30;99.90;;;;;;5054168;28;20582;-84
2023/03/27 05:32:57;;;;;;;0.30;0.30;;;2.40;99.90;;;;;;5054242;28;20469;-85
2023/03/27 05:35:26;;;;;;;0.30;0.30;;;2.40;99.90;;;;;;5053975;28;20438;-84
2023/03/27 05:37:54;;;;;;;0.30;0.20;;;2.40;99.90;;;;;;5053707;28;20482;-84
2023/03/27 05:40:24;;;;;;;1.23;0.83;;;2.40;99.90;;;;;;5053558;28;20450;-85
2023/03/27 05:42:52;;;;;;;0.47;0.47;;;2.40;99.90;;;;;;5053182;28;20430;-84
2023/03/27 05:45:19;;;;;;;0.40;0.40;;;2.40;99.90;;;;;;5053924;28;20516;-84
2023/03/27 05:47:49;;;;;;;0.40;0.40;;;2.40;99.90;;;;;;5053633;28;20434;-84
2023/03/27 05:50:18;;;;;;;0.40;0.40;;;2.40;99.90;;;;;;5053378;28;20998;-85
2023/03/27 05:52:46;;;;;;;0.30;0.30;;;2.40;99.90;;;;;;5053709;28;20442;-85
2023/03/27 05:55:13;;;;;;;0.40;0.40;;;2.50;99.90;;;;;;5053751;28;20459;-85
2023/03/27 05:57:41;;;;;;;0.37;0.37;;;2.50;99.90;;;;;;5053467;28;20561;-84
2023/03/27 06:00:15;;;;;;;0.43;0.43;;;2.50;99.90;;;;;;5053401;28;20473;-84
2023/03/27 06:02:43;;;;;;;0.40;0.40;;;2.40;99.90;;;;;;5053994;28;20774;-85
2023/03/27 06:05:14;;;;;;;0.30;0.30;;;2.40;99.90;;;;;;5053475;28;20438;-85
2023/03/27 06:07:41;;;;;;;0.50;0.50;;;2.40;99.90;;;;;;5053580;28;20410;-85
2023/03/27 06:10:09;;;;;;;0.40;0.40;;;2.50;99.90;;;;;;5053073;28;20456;-85
2023/03/27 06:12:37;;;;;;;0.30;0.20;;;2.50;99.90;;;;;;5053656;28;20438;-85
2023/03/27 06:15:06;;;;;;;0.30;0.30;;;2.60;99.90;;;;;;5053258;28;20454;-85
2023/03/27 06:17:33;;;;;;;0.30;0.30;;;2.60;99.90;;;;;;5053212;28;20461;-85
2023/03/27 06:20:00;;;;;;;1.90;1.27;;;2.70;99.90;;;;;;5052883;28;20469;-85
2023/03/27 06:22:29;;;;;;;0.30;0.30;;;2.80;99.90;;;;;;5052822;28;20462;-85
2023/03/27 06:24:55;;;;;;;0.93;0.50;;;2.80;99.90;;;;;;5052892;28;20481;-85
2023/03/27 06:27:22;;;;;;;0.30;0.30;;;2.80;99.90;;;;;;5053206;28;20466;-83
2023/03/27 06:29:49;;;;;;;0.53;0.43;;;3.00;99.90;;;;;;5053051;28;20544;-85
2023/03/27 06:32:16;;;;;;;0.30;0.30;;;3.00;99.90;;;;;;5052920;28;20930;-85
2023/03/27 06:34:43;;;;;;;2.30;1.03;;;3.00;99.90;;;;;;5052879;28;20450;-84
2023/03/27 06:37:10;;;;;;;0.40;0.40;;;3.00;99.90;;;;;;5053107;28;20532;-85
2023/03/27 06:39:38;;;;;;;0.90;0.90;;;3.10;99.90;;;;;;5053054;28;20445;-85
2023/03/27 06:42:05;;;;;;;0.30;0.30;;;3.20;99.90;;;;;;5052929;28;20469;-85
2023/03/27 06:44:32;;;;;;;0.50;0.50;;;3.20;99.90;;;;;;5052843;28;21040;-85
2023/03/27 06:46:58;;;;;;;0.30;0.30;;;3.30;99.90;;;;;;5053039;28;20442;-84
2023/03/27 06:49:25;;;;;;;0.30;0.30;;;3.30;99.90;;;;;;5053059;28;20455;-85
2023/03/27 06:51:52;;;;;;;0.30;0.30;;;3.50;99.90;;;;;;5052821;28;20855;-84
2023/03/27 06:54:19;;;;;;;0.30;0.30;;;3.70;99.90;;;;;;5054001;28;20412;-84
2023/03/27 06:56:47;;;;;;;0.30;0.30;;;4.00;99.90;;;;;;5056839;28;20450;-85
2023/03/27 06:59:14;;;;;;;0.30;0.30;;;4.10;99.90;;;;;;5057614;28;20596;-86
2023/03/27 07:01:42;;;;;;;0.30;0.30;;;4.30;99.90;;;;;;5069673;28;20453;-86
2023/03/27 07:04:09;;;;;;;0.30;0.30;;;4.50;99.90;;;;;;5066884;28;20454;-84
2023/03/27 07:06:36;;;;;;;0.40;0.30;;;4.80;99.90;;;;;;5064078;28;20446;-84
2023/03/27 07:09:03;;;;;;;2.87;0.63;;;5.00;99.90;;;;;;5059984;28;20454;-84
2023/03/27 07:11:29;;;;;;;1.53;0.40;;;5.00;99.90;;;;;;5056379;28;20482;-85
2023/03/27 07:13:57;;;;;;;0.30;0.30;;;5.10;99.90;;;;;;5056836;28;20450;-85
2023/03/27 07:16:24;;;;;;;0.30;0.20;;;5.10;99.90;;;;;;5056774;28;20454;-85
2023/03/27 07:18:51;;;;;;;0.30;0.30;;;5.20;99.90;;;;;;5056343;28;20539;-84
2023/03/27 07:21:17;;;;;;;0.50;0.40;;;5.40;99.90;;;;;;5056287;28;20455;-84
2023/03/27 07:23:45;;;;;;;0.40;0.40;;;5.60;99.90;;;;;;5056372;28;20815;-85
2023/03/27 07:26:11;;;;;;;0.30;0.30;;;5.50;99.90;;;;;;5056316;28;20450;-85
2023/03/27 07:28:38;;;;;;;0.30;0.30;;;5.50;99.90;;;;;;5056265;28;20463;-85
2023/03/27 07:31:12;;;;;;;0.30;0.30;;;5.70;99.90;;;;;;5056236;28;20963;-85
2023/03/27 07:33:39;;;;;;;0.30;0.30;;;5.80;99.90;;;;;;5056694;28;20521;-85
2023/03/27 07:36:08;;;;;;;0.43;0.43;;;6.00;99.90;;;;;;5056220;28;20458;-84
2023/03/27 07:38:34;;;;;;;0.30;0.30;;;6.10;99.90;;;;;;5056058;28;20490;-84
2023/03/27 07:41:04;;;;;;;0.30;0.30;;;6.20;99.90;;;;;;5056610;28;20443;-85
2023/03/27 07:43:31;;;;;;;0.60;0.60;;;6.10;99.90;;;;;;5056280;28;20880;-85
2023/03/27 07:45:57;;;;;;;0.30;0.30;;;6.30;99.90;;;;;;5056253;28;20458;-85
2023/03/27 07:48:26;;;;;;;0.30;0.30;;;6.50;99.90;;;;;;5055973;28;20454;-85
2023/03/27 07:50:57;;;;;;;0.60;0.50;;;6.80;99.90;;;;;;5056370;28;20450;-85
2023/03/27 07:53:24;;;;;;;0.40;0.30;;;6.80;99.90;;;;;;5056116;28;20426;-85
2023/03/27 07:55:52;;;;;;;0.30;0.20;;;6.70;99.90;;;;;;5055937;28;20874;-84
2023/03/27 07:58:20;;;;;;;1.57;1.57;;;6.70;99.90;;;;;;5055827;28;20573;-85
2023/03/27 08:00:50;;;;;;;8.40;0.43;;;6.60;99.90;;;;;;5055974;28;20445;-85
2023/03/27 08:03:17;;;;;;;0.50;0.40;;;6.70;99.90;;;;;;5055640;28;21036;-85
2023/03/27 08:05:52;;;;;;;0.43;0.40;;;6.70;99.90;;;;;;5055385;28;20455;-85
2023/03/27 08:08:19;;;;;;;0.40;0.30;;;6.50;99.90;;;;;;5055792;28;20457;-85
2023/03/27 08:10:46;;;;;;;0.40;0.40;;;6.30;99.90;;;;;;5055425;28;20552;-84
2023/03/27 08:13:12;;;;;;;0.37;0.37;;;6.30;99.90;;;;;;5055741;28;20526;-85
2023/03/27 08:15:39;;;;;;;0.30;0.30;;;6.50;99.90;;;;;;5056137;28;20446;-85
2023/03/27 08:18:07;;;;;;;0.40;0.30;;;6.70;99.90;;;;;;5055490;28;20510;-85
2023/03/27 08:20:34;;;;;;;0.40;0.40;;;6.90;99.90;;;;;;5055478;28;20466;-85
2023/03/27 08:23:03;;;;;;;0.30;0.30;;;7.10;99.90;;;;;;5055537;28;20439;-85
2023/03/27 08:25:31;;;;;;;0.40;0.30;;;7.30;99.90;;;;;;5055310;28;20454;-85
2023/03/27 08:27:58;;;;;;;0.30;0.30;;;7.30;99.90;;;;;;5055513;28;20443;-85
2023/03/27 08:30:25;;;;;;;2.20;0.30;;;7.50;99.90;;;;;;5055358;28;20477;-84
2023/03/27 08:32:52;;;;;;;0.40;0.40;;;7.40;99.90;;;;;;5055505;28;20450;-85
2023/03/27 08:35:18;;;;;;;0.40;0.30;;;7.40;99.90;;;;;;5055248;28;20459;-85
2023/03/27 08:37:45;;;;;;;0.37;0.37;;;7.30;99.90;;;;;;5055351;28;20447;-85
2023/03/27 08:40:19;;;;;;;0.40;0.40;;;7.20;99.90;;;;;;5055164;28;20569;-85
2023/03/27 08:42:49;;;;;;;0.93;0.40;;;7.00;99.90;;;;;;5055272;28;20454;-85
2023/03/27 08:45:20;;;;;;;0.30;0.30;;;6.80;99.90;;;;;;5054877;28;20457;-85
2023/03/27 08:47:52;;;;;;;0.30;0.30;;;6.60;99.90;;;;;;5055222;28;20434;-85
2023/03/27 08:50:31;;;;;;;0.30;0.30;;;6.60;99.90;;;;;;5055085;28;20480;-86
2023/03/27 08:52:58;;;;;;;2.20;1.23;;;6.70;99.90;;;;;;5055034;28;20439;-85
2023/03/27 08:55:37;;;;;;;0.37;0.30;;;6.70;99.90;;;;;;5055061;28;20446;-86
2023/03/27 08:58:04;;;;;;;0.30;0.30;;;6.70;99.90;;;;;;5054972;28;20446;-85
2023/03/27 09:00:36;;;;;;;0.30;0.30;;;6.80;99.90;;;;;;5054644;28;20474;-85
2023/03/27 09:03:11;;;;;;;0.40;0.30;;;7.00;99.90;;;;;;5054903;28;20437;-85
2023/03/27 09:05:42;;;;;;;0.67;0.33;;;7.40;99.90;;;;;;5054830;28;20434;-85
2023/03/27 09:08:18;;;;;;;0.30;0.30;;;7.80;99.90;;;;;;5054799;28;20446;-85
2023/03/27 09:10:50;;;;;;;0.40;0.30;;;8.70;99.90;;;;;;5054371;28;20482;-86
2023/03/27 09:13:22;;;;;;;0.40;0.30;;;9.30;99.90;;;;;;5054345;28;20439;-85
2023/03/27 09:15:56;;;;;;;0.30;0.30;;;10.00;99.90;;;;;;5054588;28;20446;-86
2023/03/27 09:18:27;;;;;;;0.37;0.27;;;11.10;99.90;;;;;;5053714;28;20434;-86
2023/03/27 09:20:57;;;;;;;0.30;0.27;;;12.10;98.60;;;;;;5056257;28;20469;-85
2023/03/27 09:23:27;;;;;;;0.30;0.20;;;13.10;99.20;;;;;;5054449;28;20455;-86
2023/03/27 09:25:59;;;;;;;1.07;0.50;;;13.70;91.60;;;;;;5054442;28;20411;-86
2023/03/27 09:28:30;;;;;;;1.23;0.50;;;13.50;91.30;;;;;;5054601;28;20423;-85
2023/03/27 09:31:00;;;;;;;0.40;0.40;;;13.70;91.40;;;;;;5054047;28;20910;-85
2023/03/27 09:33:27;;;;;;;1.00;0.40;;;14.00;89.20;;;;;;5054078;28;20504;-85
2023/03/27 09:35:54;;;;;;;0.53;0.53;;;14.70;86.10;;;;;;5053761;28;20501;-85
2023/03/27 09:38:27;;;;;;;0.70;0.40;;;15.50;82.80;;;;;;5053929;28;20496;-85
2023/03/27 09:40:59;;;;;;;2.17;0.97;;;16.50;78.30;;;;;;5053869;28;20411;-85
2023/03/27 09:43:30;;;;;;;0.40;0.40;;;17.80;72.30;;;;;;5053913;28;20525;-85
2023/03/27 09:45:59;;;;;;;1.80;0.40;;;18.40;64.80;;;;;;5054021;28;20435;-85
2023/03/27 09:48:33;;;;;;;0.40;0.30;;;18.80;64.50;;;;;;5053590;28;20445;-85
2023/03/27 09:51:01;;;;;;;3.83;0.40;;;19.50;60.80;;;;;;5053902;28;20434;-85
2023/03/27 09:53:28;;;;;;;0.40;0.33;;;19.60;56.90;;;;;;5053446;28;20455;-84
2023/03/27 09:55:58;;;;;;;1.57;0.30;;;20.30;56.00;;;;;;5053819;28;20457;-83
2023/03/27 09:58:31;;;;;;;2.63;0.60;;;20.90;53.90;;;;;;5054577;28;20446;-83
2023/03/27 10:01:13;;;;;;;0.50;0.40;;;21.30;54.70;;;;;;5053765;28;20473;-83
2023/03/27 10:03:42;;;;;;;2.87;0.60;;;21.20;52.90;;;;;;5053619;28;20438;-84
2023/03/27 10:06:13;;;;;;;1.07;0.70;;;20.20;52.00;;;;;;5053723;28;20447;-84
2023/03/27 10:08:42;;;;;;;0.50;0.40;;;19.50;54.40;;;;;;5055263;28;20462;-84
2023/03/27 10:11:17;;;;;;;0.57;0.50;;;19.10;50.70;;;;;;5055748;28;20478;-84
2023/03/27 10:13:46;;;;;;;0.40;0.33;;;18.60;52.20;;;;;;5054648;28;20434;-83
2023/03/27 10:16:16;;;;;;;0.40;0.30;;;18.20;53.10;;;;;;5054738;28;20886;-82
2023/03/27 10:18:45;;;;;;;3.40;0.43;;;17.90;54.20;;;;;;5053025;28;21017;-82
2023/03/27 10:21:19;;;;;;;0.30;0.30;;;17.30;53.00;;;;;;5053111;28;20929;-83
2023/03/27 10:23:48;;;;;;;0.50;0.50;;;17.30;56.10;;;;;;5053106;28;20960;-83
2023/03/27 10:26:19;;;;;;;0.50;0.50;;;17.30;53.50;;;;;;5053012;28;21016;-83
2023/03/27 10:28:50;;;;;;;1.27;0.70;;;17.70;53.90;;;;;;5053819;28;20977;-83
2023/03/27 10:31:29;;;;;;;1.57;0.50;;;18.10;56.00;;;;;;5054017;28;20454;-83
2023/03/27 10:33:56;;;;;;;0.70;0.50;;;17.70;52.30;;;;;;5053141;28;20414;-83
2023/03/27 10:36:24;;;;;;;0.57;0.50;;;16.80;54.20;;;;;;5053272;28;20478;-83
2023/03/27 10:38:56;;;;;;;0.63;0.40;;;15.80;55.60;;;;;;5053085;28;20490;-83
2023/03/27 10:41:26;;;;;;;1.70;0.50;;;15.70;54.40;;;;;;5053095;28;20945;-82
2023/03/27 10:43:53;;;;;;;0.30;0.30;;;16.10;52.40;;;;;;5053231;28;20761;-83
2023/03/27 10:46:24;;;;;;;0.40;0.40;;;16.70;49.40;;;;;;5052860;28;20912;-82
2023/03/27 10:48:58;;;;;;;0.90;0.50;;;17.70;52.00;;;;;;5053107;28;20878;-83
2023/03/27 10:51:33;;;;;;;0.57;0.50;;;19.00;52.20;;;;;;5052862;28;20434;-83
2023/03/27 10:54:09;;;;;;;3.63;0.50;;;20.10;48.40;;;;;;5052697;28;20864;-83
2023/03/27 10:56:45;;;;;;;1.00;1.00;;;20.80;46.90;;;;;;5052867;28;20419;-83
2023/03/27 10:59:16;;;;;;;0.40;0.37;;;21.90;44.60;;;;;;5052827;28;20486;-83
2023/03/27 11:01:48;;;;;;;0.70;0.57;;;22.50;43.90;;;;;;5052744;28;20914;-82
2023/03/27 11:04:20;;;;;;;0.40;0.30;;;23.10;42.60;;;;;;5052804;28;20417;-83
2023/03/27 11:06:49;;;;;;;0.50;0.43;;;23.40;43.20;;;;;;5052995;28;20431;-83
2023/03/27 11:09:22;;;;;;;3.20;0.40;;;22.20;39.20;;;;;;5052732;28;20489;-83
2023/03/27 11:11:53;;;;;;;1.13;0.40;;;20.20;41.90;;;;;;5052962;28;20458;-83
2023/03/27 11:14:25;;;;;;;0.90;0.47;;;18.30;44.80;;;;;;5052608;28;20422;-83
2023/03/27 11:16:55;;;;;;;1.80;0.40;;;16.80;49.60;;;;;;5052596;28;20811;-83
2023/03/27 11:19:32;;;;;;;1.77;0.37;;;15.70;49.70;;;;;;5052711;28;20490;-83
2023/03/27 11:22:04;;;;;;;0.90;0.40;;;14.70;49.90;;;;;;5052841;28;20438;-83
2023/03/27 11:24:38;;;;;;;0.40;0.37;;;13.80;52.00;;;;;;5052828;28;20434;-83
2023/03/27 11:27:12;;;;;;;0.50;0.40;;;13.10;53.70;;;;;;5052805;28;20442;-83
2023/03/27 11:29:43;;;;;;;0.40;0.40;;;12.70;55.10;;;;;;5052718;28;20499;-83
2023/03/27 11:32:20;;;;;;;0.50;0.30;;;12.60;55.10;;;;;;5052694;28;20458;-83
2023/03/27 11:34:52;;;;;;;0.40;0.30;;;12.50;54.50;;;;;;5052716;28;20447;-83
2023/03/27 11:37:24;;;;;;;7.60;0.40;;;12.50;56.00;;;;;;5053143;28;20537;-83
2023/03/27 11:39:55;;;;;;;0.40;0.30;;;12.30;54.40;;;;;;5052888;28;20490;-83
2023/03/27 11:42:27;;;;;;;8.13;0.40;;;12.10;54.40;;;;;;5056045;28;20989;-82
2023/03/27 11:44:55;;;;;;;2.10;0.30;;;11.90;55.80;;;;;;5056271;28;20435;-82
2023/03/27 11:47:38;;;;;;;0.97;0.97;;;11.80;55.90;;;;;;5056209;28;20499;-83
2023/03/27 11:50:24;;;;;;;0.40;0.30;;;11.90;58.30;;;;;;5055847;28;20981;-81
2023/03/27 11:53:12;;;;;;;0.40;0.40;;;11.80;56.70;;;;;;5056101;28;20441;-81
2023/03/27 11:55:52;;;;;;;0.33;0.30;;;11.60;54.90;;;;;;5056109;28;20412;-81
2023/03/27 11:58:29;;;;;;;0.40;0.40;;;11.30;56.50;;;;;;5055647;28;20910;-82
2023/03/27 12:01:06;;;;;;;0.57;0.33;;;11.00;54.40;;;;;;5055933;28;20470;-82
2023/03/27 12:03:52;;;;;;;0.37;0.30;;;10.70;55.60;;;;;;5055958;28;20885;-82
2023/03/27 12:06:24;;;;;;;0.30;0.30;;;10.60;57.00;;;;;;5055679;28;20828;-82
2023/03/27 12:09:09;;;;;;;0.40;0.30;;;10.40;56.70;;;;;;5055454;28;20479;-82
2023/03/27 12:11:41;;;;;;;0.40;0.37;;;10.20;57.90;;;;;;5056659;28;20433;-82
2023/03/27 12:14:33;;;;;;;0.50;0.30;;;10.10;59.30;;;;;;5055764;28;20477;-82
2023/03/27 12:17:11;;;;;;;0.30;0.30;;;10.10;60.40;;;;;;5051143;28;20465;-82
2023/03/27 12:20:17;;;;;;;0.40;0.30;;;10.30;57.40;;;;;;5055455;28;20485;-82
2023/03/27 12:22:50;;;;;;;2.50;0.40;;;10.40;57.80;;;;;;5055567;28;20435;-82
2023/03/27 12:25:32;;;;;;;0.73;0.40;;;10.60;55.20;;;;;;5055538;28;20431;-82
2023/03/27 12:28:08;;;;;;;0.40;0.30;;;10.60;55.10;;;;;;5055263;28;20829;-83
2023/03/27 12:30:51;;;;;;;0.40;0.33;;;10.70;57.20;;;;;;5055423;28;20838;-82
2023/03/27 12:33:35;;;;;;;0.40;0.30;;;10.90;56.50;;;;;;5055411;28;20464;-82
2023/03/27 12:36:05;;;;;;;0.40;0.40;;;10.90;56.20;;;;;;5055035;28;20821;-82
2023/03/27 12:38:35;;;;;;;1.37;0.63;;;10.80;57.80;;;;;;5055106;28;20466;-83
2023/03/27 12:41:18;;;;;;;1.17;0.40;;;10.70;57.90;;;;;;5055216;28;20470;-82
2023/03/27 12:43:46;;;;;;;0.30;0.30;;;10.60;58.60;;;;;;5055203;28;20442;-82
2023/03/27 12:46:31;;;;;;;0.40;0.30;;;10.40;58.90;;;;;;5054813;28;20964;-83
2023/03/27 12:49:04;;;;;;;0.40;0.40;;;10.00;61.30;;;;;;5055632;28;20969;-84
2023/03/27 12:51:42;;;;;;;0.40;0.40;;;9.80;65.50;;;;;;5054119;28;20805;-84
2023/03/27 12:54:15;;;;;;;0.90;0.60;;;9.70;66.30;;;;;;5054711;28;20917;-84
2023/03/27 12:56:42;;;;;;;1.43;0.50;;;9.80;65.70;;;;;;5055785;28;20446;-84
2023/03/27 12:59:21;;;;;;;0.40;0.30;;;9.90;67.20;;;;;;5054783;28;20949;-84
2023/03/27 13:02:23;;;;;;;0.30;0.30;;;10.00;67.10;;;;;;5055115;28;20463;-84
2023/03/27 13:05:15;;;;;;;0.30;0.30;;;10.00;65.90;;;;;;5054803;28;20453;-84
2023/03/27 13:07:50;;;;;;;0.57;0.37;;;10.00;64.40;;;;;;5051670;28;20504;-84
2023/03/27 13:10:35;;;;;;;0.30;0.30;;;9.90;64.70;;;;;;5054292;28;20531;-84
2023/03/27 13:13:33;;;;;;;0.30;0.30;;;9.90;64.10;;;;;;5054739;28;20427;-84
2023/03/27 13:16:22;;;;;;;0.93;0.40;;;9.70;66.10;;;;;;5054560;28;20453;-84